createdAt,value
2017-08-15T00:02:02.511Z,3.30
2017-08-15T00:04:32.172Z,3.50
2017-08-15T00:07:02.818Z,3.50
2017-08-15T00:09:33.683Z,3.67
2017-08-15T00:12:02.970Z,3.63
2017-08-15T00:14:32.692Z,3.80
2017-08-15T00:17:06.409Z,3.53
2017-08-15T00:19:35.877Z,3.60
2017-08-15T00:22:05.026Z,3.13
2017-08-15T00:24:34.498Z,3.60
2017-08-15T00:27:03.627Z,3.80
2017-08-15T00:29:42.451Z,3.23
2017-08-15T00:32:12.603Z,3.57
2017-08-15T00:34:46.933Z,3.87
2017-08-15T00:37:17.519Z,3.47
2017-08-15T00:39:47.687Z,3.23
2017-08-15T00:42:16.579Z,3.50
2017-08-15T00:44:45.965Z,3.40
2017-08-15T00:47:16.464Z,3.60
2017-08-15T00:49:45.626Z,3.50
2017-08-15T00:52:15.738Z,3.40
2017-08-15T00:54:45.001Z,4.07
2017-08-15T00:57:14.624Z,3.33
2017-08-15T00:59:46.768Z,4.23
2017-08-15T01:03:19.138Z,4.23
2017-08-15T01:05:52.837Z,3.67
2017-08-15T01:08:24.495Z,3.10
2017-08-15T01:11:58.967Z,3.60
2017-08-15T01:14:28.015Z,3.93
2017-08-15T01:16:59.042Z,3.77
2017-08-15T01:19:29.196Z,3.73
2017-08-15T01:22:01.129Z,3.30
2017-08-15T01:24:32.347Z,3.30
2017-08-15T01:27:03.981Z,2.90
2017-08-15T01:29:33.731Z,3.73
2017-08-15T01:32:04.843Z,3.20
2017-08-15T01:34:34.683Z,3.03
2017-08-15T01:37:05.238Z,3.63
2017-08-15T01:39:35.320Z,3.27
2017-08-15T01:42:05.989Z,3.80
2017-08-15T01:44:35.738Z,3.83
2017-08-15T01:47:05.434Z,2.77
2017-08-15T01:49:35.795Z,3.30
2017-08-15T01:52:09.315Z,3.30
2017-08-15T01:54:40.670Z,3.20
2017-08-15T01:57:11.214Z,3.90
2017-08-15T01:59:43.161Z,3.43
2017-08-15T02:02:13.800Z,3.20
2017-08-15T02:04:44.934Z,3.50
2017-08-15T02:07:14.772Z,3.10
2017-08-15T02:09:45.328Z,3.53
2017-08-15T02:12:16.378Z,3.50
2017-08-15T02:14:45.960Z,3.40
2017-08-15T02:17:16.221Z,3.50
2017-08-15T02:19:46.055Z,3.13
2017-08-15T02:22:15.732Z,2.87
2017-08-15T02:24:46.882Z,2.90
2017-08-15T02:27:17.690Z,3.70
2017-08-15T02:29:49.354Z,3.80
2017-08-15T02:32:21.612Z,3.10
2017-08-15T02:34:51.828Z,3.30
2017-08-15T02:37:21.452Z,3.70
2017-08-15T02:39:53.401Z,3.30
2017-08-15T02:42:23.460Z,3.13
2017-08-15T02:44:53.613Z,3.40
2017-08-15T02:47:23.235Z,3.27
2017-08-15T02:49:54.336Z,3.80
2017-08-15T02:52:24.329Z,3.60
2017-08-15T02:54:59.131Z,3.20
2017-08-15T02:58:28.265Z,3.13
2017-08-15T03:04:18.249Z,3.27
2017-08-15T03:06:49.430Z,3.20
2017-08-15T03:09:22.319Z,3.47
2017-08-15T03:11:55.132Z,3.40
2017-08-15T03:14:25.048Z,3.30
2017-08-15T03:16:58.813Z,3.13
2017-08-15T03:19:28.339Z,3.20
2017-08-15T03:22:00.031Z,3.43
2017-08-15T03:24:29.780Z,3.33
2017-08-15T03:27:01.512Z,3.67
2017-08-15T03:29:30.993Z,3.00
2017-08-15T03:32:02.332Z,3.40
2017-08-15T03:34:31.446Z,3.33
2017-08-15T03:37:03.104Z,3.10
2017-08-15T03:39:35.036Z,2.80
2017-08-15T03:42:05.872Z,3.33
2017-08-15T03:44:36.691Z,3.60
2017-08-15T03:47:07.552Z,4.00
2017-08-15T03:49:39.764Z,3.60
2017-08-15T03:52:09.585Z,4.30
2017-08-15T03:54:42.402Z,4.73
2017-08-15T03:57:11.886Z,4.33
2017-08-15T03:59:44.133Z,4.53
2017-08-15T04:02:15.185Z,4.83
2017-08-15T04:04:45.285Z,4.67
2017-08-15T04:07:15.946Z,5.17
2017-08-15T04:09:46.311Z,5.03
2017-08-15T04:12:16.580Z,4.60
2017-08-15T04:14:47.828Z,5.00
2017-08-15T04:17:18.204Z,4.87
2017-08-15T04:19:49.639Z,5.30
2017-08-15T04:22:20.003Z,4.80
2017-08-15T04:24:50.373Z,5.00
2017-08-15T04:27:20.182Z,5.60
2017-08-15T04:29:55.540Z,5.67
2017-08-15T04:32:24.905Z,5.30
2017-08-15T04:34:56.658Z,5.40
2017-08-15T04:37:27.168Z,5.87
2017-08-15T04:39:59.854Z,5.80
2017-08-15T04:42:31.452Z,5.60
2017-08-15T04:45:04.078Z,5.70
2017-08-15T04:47:35.545Z,5.40
2017-08-15T04:50:04.990Z,5.70
2017-08-15T04:52:35.670Z,5.10
2017-08-15T04:55:08.001Z,5.40
2017-08-15T04:57:41.467Z,5.60
2017-08-15T05:00:12.943Z,5.27
2017-08-15T05:02:48.229Z,5.93
2017-08-15T05:05:19.192Z,6.00
2017-08-15T05:07:52.469Z,6.17
2017-08-15T05:10:24.363Z,5.67
2017-08-15T05:12:56.600Z,5.40
2017-08-15T05:15:28.594Z,6.20
2017-08-15T05:18:03.294Z,6.27
2017-08-15T05:20:34.660Z,5.13
2017-08-15T05:25:51.003Z,5.90
2017-08-15T05:28:21.048Z,5.77
2017-08-15T05:30:59.566Z,6.00
2017-08-15T05:33:31.129Z,5.73
2017-08-15T05:38:58.675Z,5.87
2017-08-15T05:41:27.987Z,5.83
2017-08-15T05:43:59.211Z,5.60
2017-08-15T05:46:31.237Z,6.17
2017-08-15T05:49:02.254Z,5.67
2017-08-15T05:51:31.538Z,5.67
2017-08-15T05:54:06.803Z,5.10
2017-08-15T05:56:50.842Z,5.50
2017-08-15T05:59:21.361Z,5.93
2017-08-15T06:01:50.388Z,5.23
2017-08-15T06:04:20.007Z,5.67
2017-08-15T06:06:50.733Z,5.17
2017-08-15T06:09:20.815Z,5.10
2017-08-15T06:11:51.645Z,5.07
2017-08-15T06:14:23.377Z,5.07
2017-08-15T06:16:52.978Z,5.03
2017-08-15T06:19:27.436Z,4.73
2017-08-15T06:21:58.940Z,5.17
2017-08-15T06:24:28.103Z,5.73
2017-08-15T06:26:58.329Z,5.13
2017-08-15T06:29:27.758Z,4.70
2017-08-15T06:31:59.728Z,5.53
2017-08-15T06:34:29.538Z,5.27
2017-08-15T06:37:00.699Z,4.90
2017-08-15T06:39:29.830Z,5.33
2017-08-15T06:41:59.403Z,5.13
2017-08-15T06:44:28.714Z,4.70
2017-08-15T06:47:02.120Z,5.23
2017-08-15T06:49:31.525Z,4.80
2017-08-15T06:52:01.485Z,5.00
2017-08-15T06:54:30.650Z,4.93
2017-08-15T06:57:05.037Z,4.80
2017-08-15T06:59:34.545Z,4.90
2017-08-15T07:02:07.350Z,4.80
2017-08-15T07:04:36.245Z,4.47
2017-08-15T07:07:08.700Z,4.30
2017-08-15T07:09:40.711Z,4.60
2017-08-15T07:12:10.471Z,4.30
2017-08-15T07:14:41.621Z,4.70
2017-08-15T07:17:12.387Z,4.37
2017-08-15T07:19:43.302Z,4.40
2017-08-15T07:22:12.485Z,4.57
2017-08-15T07:24:44.793Z,4.97
2017-08-15T07:27:16.171Z,3.97
2017-08-15T07:29:47.525Z,4.33
2017-08-15T07:32:17.636Z,4.33
2017-08-15T07:34:48.581Z,4.43
2017-08-15T07:37:20.088Z,3.97
2017-08-15T07:39:50.537Z,4.13
2017-08-15T07:42:20.380Z,4.00
2017-08-15T07:44:52.183Z,5.03
2017-08-15T07:47:23.329Z,4.30
2017-08-15T07:49:53.952Z,4.53
2017-08-15T07:52:26.267Z,4.20
2017-08-15T07:54:57.283Z,4.43
2017-08-15T07:57:27.300Z,4.13
2017-08-15T07:59:57.960Z,4.60
2017-08-15T08:02:28.099Z,4.00
2017-08-15T08:04:59.543Z,4.27
2017-08-15T08:07:30.420Z,4.10
2017-08-15T08:10:00.535Z,4.40
2017-08-15T08:12:30.559Z,4.10
2017-08-15T08:17:50.871Z,4.10
2017-08-15T08:20:25.343Z,4.37
2017-08-15T08:22:59.721Z,3.83
2017-08-15T08:25:30.252Z,4.30
2017-08-15T08:28:06.331Z,4.20
2017-08-15T08:30:40.022Z,3.67
2017-08-15T08:33:10.392Z,4.00
2017-08-15T08:35:47.463Z,3.90
2017-08-15T08:38:17.114Z,3.80
2017-08-15T08:40:46.841Z,3.90
2017-08-15T08:43:17.502Z,4.63
2017-08-15T08:45:46.745Z,4.03
2017-08-15T08:48:15.824Z,4.30
2017-08-15T08:50:45.480Z,4.33
2017-08-15T08:53:15.602Z,3.73
2017-08-15T08:55:44.701Z,3.80
2017-08-15T08:58:14.096Z,4.03
2017-08-15T09:00:43.643Z,3.97
2017-08-15T09:03:13.568Z,3.67
2017-08-15T09:05:43.350Z,4.00
2017-08-15T09:08:12.401Z,4.43
2017-08-15T09:10:43.811Z,4.03
2017-08-15T09:13:12.812Z,3.90
2017-08-15T09:15:46.150Z,3.83
2017-08-15T09:18:15.557Z,4.10
2017-08-15T09:20:44.639Z,4.43
2017-08-15T09:23:14.797Z,4.30
2017-08-15T09:25:45.160Z,4.67
2017-08-15T09:28:15.540Z,4.23
2017-08-15T09:30:44.822Z,4.70
2017-08-15T09:33:15.003Z,4.43
2017-08-15T09:35:45.408Z,4.23
2017-08-15T09:38:14.965Z,4.60
2017-08-15T09:40:44.481Z,4.63
2017-08-15T09:43:14.633Z,5.37
2017-08-15T09:45:43.800Z,5.43
2017-08-15T09:48:14.068Z,5.50
2017-08-15T09:50:43.699Z,4.90
2017-08-15T09:53:13.446Z,4.60
2017-08-15T09:55:43.176Z,4.40
2017-08-15T09:58:16.174Z,4.70
2017-08-15T10:00:45.330Z,4.50
2017-08-15T10:03:15.353Z,4.90
2017-08-15T10:05:46.536Z,4.27
2017-08-15T10:08:18.924Z,4.40
2017-08-15T10:10:50.405Z,5.10
2017-08-15T10:13:20.265Z,4.60
2017-08-15T10:15:50.542Z,5.00
2017-08-15T10:18:20.429Z,4.80
2017-08-15T10:20:53.948Z,4.73
2017-08-15T10:23:23.781Z,5.57
2017-08-15T10:25:54.843Z,5.77
2017-08-15T10:28:24.068Z,5.60
2017-08-15T10:30:56.295Z,6.40
2017-08-15T10:33:25.704Z,6.30
2017-08-15T10:35:54.852Z,6.57
2017-08-15T10:38:24.662Z,6.70
2017-08-15T10:40:54.542Z,7.33
2017-08-15T10:43:23.768Z,7.27
2017-08-15T10:45:53.033Z,7.40
2017-08-15T10:48:22.508Z,6.97
2017-08-15T10:50:54.653Z,8.73
2017-08-15T10:53:24.560Z,7.40
2017-08-15T10:55:56.536Z,7.27
2017-08-15T10:58:27.037Z,7.67
2017-08-15T11:00:58.049Z,8.43
2017-08-15T11:03:27.378Z,7.07
2017-08-15T11:05:57.468Z,7.50
2017-08-15T11:08:26.577Z,8.27
2017-08-15T11:10:57.435Z,7.53
2017-08-15T11:13:26.684Z,8.10
2017-08-15T11:15:58.844Z,7.90
2017-08-15T11:18:28.138Z,7.40
2017-08-15T11:20:58.624Z,7.80
2017-08-15T11:23:28.002Z,8.30
2017-08-15T11:25:58.727Z,8.23
2017-08-15T11:28:28.250Z,7.77
2017-08-15T11:30:57.870Z,8.00
2017-08-15T11:33:27.113Z,7.80
2017-08-15T11:35:56.237Z,7.17
2017-08-15T11:38:25.714Z,7.30
2017-08-15T11:40:54.912Z,7.60
2017-08-15T11:43:23.983Z,7.13
2017-08-15T11:45:58.503Z,7.57
2017-08-15T11:48:27.719Z,7.60
2017-08-15T11:50:58.589Z,7.63
2017-08-15T11:53:28.280Z,8.37
2017-08-15T11:55:58.346Z,7.63
2017-08-15T11:58:27.500Z,7.50
2017-08-15T12:00:57.832Z,6.90
2017-08-15T12:03:27.347Z,6.47
2017-08-15T12:05:57.039Z,6.87
2017-08-15T12:08:26.419Z,7.17
2017-08-15T12:10:57.813Z,6.97
2017-08-15T12:13:31.753Z,7.60
2017-08-15T12:16:03.363Z,7.17
2017-08-15T12:18:32.418Z,6.60
2017-08-15T12:21:08.333Z,6.90
2017-08-15T12:23:41.035Z,6.60
2017-08-15T12:26:13.702Z,6.53
2017-08-15T12:28:43.349Z,6.37
2017-08-15T12:31:12.550Z,6.70
2017-08-15T12:33:42.806Z,6.43
2017-08-15T12:36:12.180Z,6.13
2017-08-15T12:38:43.768Z,6.37
2017-08-15T12:41:15.787Z,5.67
2017-08-15T12:43:45.124Z,6.10
2017-08-15T12:46:14.384Z,6.00
2017-08-15T12:48:43.527Z,6.13
2017-08-15T12:51:13.079Z,6.20
2017-08-15T12:53:43.476Z,6.70
2017-08-15T12:56:12.556Z,6.80
2017-08-15T12:58:43.294Z,6.57
2017-08-15T13:01:12.706Z,5.60
2017-08-15T13:03:43.160Z,5.43
2017-08-15T13:06:12.804Z,5.80
2017-08-15T13:08:43.939Z,6.30
2017-08-15T13:11:12.983Z,6.03
2017-08-15T13:13:43.759Z,5.27
2017-08-15T13:16:12.913Z,5.63
2017-08-15T13:18:44.134Z,5.20
2017-08-15T13:21:13.343Z,6.30
2017-08-15T13:23:45.032Z,5.63
2017-08-15T13:26:14.833Z,5.47
2017-08-15T13:28:46.764Z,5.47
2017-08-15T13:40:56.495Z,5.53
2017-08-15T13:43:26.666Z,5.87
2017-08-15T13:45:59.051Z,5.80
2017-08-15T13:48:28.456Z,5.30
2017-08-15T13:51:00.029Z,5.50
2017-08-15T13:53:30.222Z,5.87
2017-08-15T13:56:00.700Z,5.77
2017-08-15T13:58:31.817Z,5.13
2017-08-15T14:01:02.064Z,5.33
2017-08-15T14:03:31.482Z,5.50
2017-08-15T14:06:03.665Z,5.77
2017-08-15T14:08:34.121Z,5.67
2017-08-15T14:11:05.488Z,5.47
2017-08-15T14:13:35.033Z,4.70
2017-08-15T14:16:05.714Z,5.40
2017-08-15T14:18:34.914Z,5.53
2017-08-15T14:21:06.494Z,5.13
2017-08-15T14:23:35.943Z,5.50
2017-08-15T14:26:06.397Z,6.00
2017-08-15T14:28:36.483Z,5.43
2017-08-15T14:31:06.457Z,6.23
2017-08-15T14:33:35.901Z,5.97
2017-08-15T14:36:06.912Z,7.67
2017-08-15T14:38:36.606Z,7.10
2017-08-15T14:41:08.562Z,6.57
2017-08-15T14:43:40.646Z,6.53
2017-08-15T14:46:11.657Z,6.10
2017-08-15T14:48:42.802Z,5.47
2017-08-15T14:51:12.507Z,7.03
2017-08-15T14:53:43.256Z,6.90
2017-08-15T14:56:12.940Z,6.70
2017-08-15T14:58:43.802Z,6.43
2017-08-15T15:01:13.685Z,6.47
2017-08-15T15:03:44.068Z,6.47
2017-08-15T15:06:14.742Z,6.07
2017-08-15T15:08:44.722Z,5.93
2017-08-15T15:11:14.301Z,6.90
2017-08-15T15:13:44.751Z,5.50
2017-08-15T15:16:14.714Z,6.30
2017-08-15T15:18:47.870Z,5.90
2017-08-15T15:21:18.020Z,6.30
2017-08-15T15:23:48.344Z,7.23
2017-08-15T15:26:18.053Z,6.83
2017-08-15T15:28:50.570Z,6.50
2017-08-15T15:31:20.326Z,7.27
2017-08-15T15:33:51.642Z,7.40
2017-08-15T15:36:21.159Z,6.97
2017-08-15T15:38:51.906Z,7.10
2017-08-15T15:41:21.213Z,7.30
2017-08-15T15:43:51.836Z,8.37
2017-08-15T15:46:21.059Z,8.10
2017-08-15T15:48:52.853Z,7.93
2017-08-15T15:51:23.222Z,8.27
2017-08-15T15:53:55.027Z,8.23
2017-08-15T15:56:24.795Z,7.90
2017-08-15T15:58:59.868Z,7.50
2017-08-15T16:01:29.336Z,7.40
2017-08-15T16:03:59.062Z,6.87
2017-08-15T16:06:28.449Z,7.90
2017-08-15T16:09:01.943Z,8.20
2017-08-15T16:11:34.700Z,7.33
2017-08-15T16:14:07.563Z,8.10
2017-08-15T16:16:39.050Z,7.77
2017-08-15T16:19:10.059Z,8.80
2017-08-15T16:21:41.145Z,8.10
2017-08-15T16:24:12.796Z,9.20
2017-08-15T16:26:43.707Z,8.10
2017-08-15T16:29:13.040Z,8.60
2017-08-15T16:31:43.456Z,8.60
2017-08-15T16:34:12.789Z,8.00
2017-08-15T16:37:14.283Z,9.97
2017-08-15T16:39:44.141Z,8.47
2017-08-15T16:42:13.892Z,7.97
2017-08-15T16:44:43.833Z,9.40
2017-08-15T16:47:13.866Z,9.80
2017-08-15T16:49:43.311Z,8.73
2017-08-15T16:52:12.685Z,8.70
2017-08-15T16:54:43.576Z,9.07
2017-08-15T16:57:12.838Z,9.03
2017-08-15T16:59:44.620Z,9.47
2017-08-15T17:02:14.288Z,8.77
2017-08-15T17:04:43.807Z,9.43
2017-08-15T17:07:13.080Z,9.40
2017-08-15T17:09:43.512Z,8.40
2017-08-15T17:12:14.667Z,8.10
2017-08-15T17:14:43.887Z,9.00
2017-08-15T17:17:13.368Z,8.10
2017-08-15T17:19:43.616Z,8.57
2017-08-15T17:22:13.157Z,8.80
2017-08-15T17:24:43.679Z,9.67
2017-08-15T17:29:46.252Z,8.87
2017-08-15T17:32:15.889Z,8.93
2017-08-15T17:34:46.541Z,8.80
2017-08-15T17:37:15.649Z,9.83
2017-08-15T17:39:45.240Z,10.07
2017-08-15T17:45:26.402Z,8.37
2017-08-15T17:47:57.676Z,9.13
2017-08-15T17:50:28.708Z,8.60
2017-08-15T17:52:59.512Z,9.20
2017-08-15T17:55:28.926Z,10.60
2017-08-15T17:57:58.564Z,8.97
2017-08-15T18:03:35.944Z,8.50
2017-08-15T18:09:28.826Z,9.60
2017-08-15T18:12:02.651Z,8.80
2017-08-15T18:14:33.385Z,10.33
2017-08-15T18:17:03.341Z,8.70
2017-08-15T18:19:33.211Z,8.80
2017-08-15T18:22:03.400Z,10.33
2017-08-15T18:24:33.139Z,9.53
2017-08-15T18:27:03.692Z,9.40
2017-08-15T18:29:33.058Z,9.63
2017-08-15T18:32:02.899Z,10.03
2017-08-15T18:34:33.022Z,9.00
2017-08-15T18:37:03.655Z,8.67
2017-08-15T18:39:34.810Z,9.40
2017-08-15T18:42:07.242Z,9.50
2017-08-15T18:44:42.075Z,10.10
2017-08-15T18:47:17.855Z,9.90
2017-08-15T18:50:15.380Z,9.03
2017-08-15T18:52:48.286Z,10.47
2017-08-15T18:55:18.720Z,9.70
2017-08-15T18:57:49.852Z,9.90
2017-08-15T19:00:21.751Z,9.80
2017-08-15T19:02:53.328Z,10.00
2017-08-15T19:05:22.368Z,10.20
2017-08-15T19:07:53.575Z,9.67
2017-08-15T19:10:22.737Z,11.30
2017-08-15T19:12:52.912Z,10.47
2017-08-15T19:15:22.296Z,10.43
2017-08-15T19:17:52.455Z,11.13
2017-08-15T19:20:25.185Z,11.00
2017-08-15T19:22:58.851Z,11.77
2017-08-15T19:25:28.901Z,12.00
2017-08-15T19:27:59.232Z,12.30
2017-08-15T19:30:29.313Z,12.13
2017-08-15T19:33:03.990Z,12.40
2017-08-15T19:35:37.209Z,12.83
2017-08-15T19:38:06.724Z,13.40
2017-08-15T19:40:41.938Z,13.03
2017-08-15T19:43:11.940Z,13.30
2017-08-15T19:45:44.318Z,13.90
2017-08-15T19:48:14.592Z,13.43
2017-08-15T19:50:43.742Z,13.67
2017-08-15T19:53:13.207Z,13.43
2017-08-15T19:55:42.705Z,15.60
2017-08-15T19:58:13.881Z,13.90
2017-08-15T20:00:44.125Z,13.27
2017-08-15T20:03:13.685Z,13.80
2017-08-15T20:05:43.712Z,14.00
2017-08-15T20:08:12.726Z,14.40
2017-08-15T20:10:43.361Z,14.50
2017-08-15T20:13:12.829Z,15.40
2017-08-15T20:15:44.155Z,14.80
2017-08-15T20:18:13.547Z,14.20
2017-08-15T20:20:44.245Z,15.33
2017-08-15T20:23:16.408Z,14.83
2017-08-15T20:25:57.778Z,14.10
2017-08-15T20:28:27.706Z,14.33
2017-08-15T20:30:57.680Z,13.43
2017-08-15T20:33:26.730Z,14.20
2017-08-15T20:36:00.360Z,13.50
2017-08-15T20:38:30.816Z,13.43
2017-08-15T20:41:02.346Z,13.80
2017-08-15T20:43:32.459Z,13.40
2017-08-15T20:46:03.711Z,13.10
2017-08-15T20:48:33.324Z,13.37
2017-08-15T20:51:02.644Z,13.70
2017-08-15T20:53:32.262Z,13.20
2017-08-15T20:56:01.992Z,13.00
2017-08-15T20:58:31.126Z,12.93
2017-08-15T21:01:05.826Z,13.13
2017-08-15T21:03:35.160Z,13.07
2017-08-15T21:06:07.014Z,12.90
2017-08-15T21:08:41.132Z,12.20
2017-08-15T21:11:11.268Z,12.63
2017-08-15T21:13:43.748Z,13.30
2017-08-15T21:16:13.497Z,12.13
2017-08-15T21:18:44.505Z,12.53
2017-08-15T21:21:14.163Z,12.87
2017-08-15T21:23:43.493Z,14.37
2017-08-15T21:26:13.153Z,14.37
2017-08-15T21:28:43.820Z,15.10
2017-08-15T21:31:13.077Z,14.20
2017-08-15T21:33:43.417Z,15.20
2017-08-15T21:36:13.007Z,14.80
2017-08-15T21:38:46.788Z,14.80
2017-08-15T21:41:16.740Z,14.47
2017-08-15T21:43:46.154Z,14.93
2017-08-15T21:46:15.599Z,14.07
2017-08-15T21:48:45.627Z,15.10
2017-08-15T21:51:16.220Z,14.30
2017-08-15T21:53:45.883Z,14.10
2017-08-15T21:56:15.324Z,15.43
2017-08-15T21:58:44.728Z,14.00
2017-08-15T22:01:19.168Z,14.37
2017-08-15T22:03:50.389Z,14.30
2017-08-15T22:06:20.449Z,13.47
2017-08-15T22:08:49.501Z,13.53
2017-08-15T22:11:19.443Z,14.27
2017-08-15T22:13:51.390Z,14.10
2017-08-15T22:16:21.126Z,13.30
2017-08-15T22:18:52.531Z,13.40
2017-08-15T22:21:22.292Z,13.60
2017-08-15T22:23:55.538Z,13.73
2017-08-15T22:26:25.080Z,13.10
2017-08-15T22:28:55.249Z,13.13
2017-08-15T22:31:25.158Z,13.53
2017-08-15T22:33:57.958Z,12.30
2017-08-15T22:36:28.265Z,12.30
2017-08-15T22:38:59.046Z,12.70
2017-08-15T22:41:28.756Z,13.37
2017-08-15T22:44:01.825Z,13.20
2017-08-15T22:46:31.536Z,14.20
2017-08-15T22:49:01.458Z,13.70
2017-08-15T22:51:31.245Z,13.87
2017-08-15T22:54:01.875Z,12.90
2017-08-15T22:56:31.394Z,12.63
2017-08-15T22:59:00.451Z,12.80
2017-08-15T23:01:32.150Z,12.00
2017-08-15T23:04:03.222Z,12.30
2017-08-15T23:06:32.835Z,11.30
2017-08-15T23:09:02.565Z,12.70
2017-08-15T23:11:31.830Z,12.37
2017-08-15T23:14:02.417Z,13.03
2017-08-15T23:16:33.114Z,12.10
2017-08-15T23:19:04.197Z,12.97
2017-08-15T23:21:33.947Z,11.27
2017-08-15T23:24:05.498Z,12.40
2017-08-15T23:26:35.257Z,12.30
2017-08-15T23:29:08.237Z,11.70
2017-08-15T23:31:40.787Z,11.80
2017-08-15T23:34:10.597Z,11.80
2017-08-15T23:36:41.564Z,12.13
2017-08-15T23:39:11.823Z,11.00
2017-08-15T23:41:44.396Z,11.20
2017-08-15T23:44:13.536Z,10.53
2017-08-15T23:46:43.862Z,10.83
2017-08-15T23:49:12.967Z,11.10
2017-08-15T23:51:43.838Z,10.90
2017-08-15T23:54:14.300Z,10.93
2017-08-15T23:56:44.240Z,11.13
2017-08-15T23:59:14.698Z,10.60
